createdAt,value
2022-12-19T00:01:43.105Z,147.60
2022-12-19T00:04:15.522Z,109.80
2022-12-19T00:06:44.054Z,163.30
2022-12-19T00:09:12.662Z,194.50
2022-12-19T00:11:40.841Z,127.60
2022-12-19T00:14:10.994Z,79.30
2022-12-19T00:16:38.689Z,54.70
2022-12-19T00:19:05.907Z,55.70
2022-12-19T00:21:35.463Z,60.30
2022-12-19T00:24:09.865Z,69.60
2022-12-19T00:26:48.618Z,64.60
2022-12-19T00:29:15.416Z,78.30
2022-12-19T00:31:43.384Z,60.40
2022-12-19T00:34:10.324Z,61.90
2022-12-19T00:36:38.989Z,63.80
2022-12-19T00:39:08.505Z,57.40
2022-12-19T00:41:42.057Z,73.50
2022-12-19T00:44:16.071Z,65.30
2022-12-19T00:46:45.176Z,103.50
2022-12-19T00:49:20.353Z,113.50
2022-12-19T00:51:47.071Z,81.20
2022-12-19T00:54:13.981Z,116.20
2022-12-19T00:56:41.953Z,104.70
2022-12-19T00:59:10.621Z,87.90
2022-12-19T01:01:41.497Z,94.40
2022-12-19T01:04:30.795Z,136.40
2022-12-19T01:07:02.284Z,111.80
2022-12-19T01:09:33.775Z,99.90
2022-12-19T01:12:19.248Z,104.30
2022-12-19T01:14:48.607Z,96.20
2022-12-19T01:17:15.386Z,97.30
2022-12-19T01:19:44.423Z,64.00
2022-12-19T01:22:13.587Z,52.90
2022-12-19T01:24:40.837Z,30.50
2022-12-19T01:27:08.465Z,30.50
2022-12-19T01:29:35.534Z,26.90
2022-12-19T01:32:05.771Z,56.90
2022-12-19T01:34:32.778Z,70.10
2022-12-19T01:36:59.454Z,82.20
2022-12-19T01:39:26.895Z,53.00
2022-12-19T01:41:58.413Z,56.60
2022-12-19T01:44:26.302Z,32.80
2022-12-19T01:46:59.850Z,31.00
2022-12-19T01:49:32.277Z,28.80
2022-12-19T01:52:03.888Z,33.40
2022-12-19T01:54:35.805Z,33.00
2022-12-19T01:57:07.748Z,37.80
2022-12-19T01:59:39.616Z,30.80
2022-12-19T02:02:17.160Z,14.50
2022-12-19T02:04:45.995Z,56.00
2022-12-19T02:07:16.571Z,51.90
2022-12-19T02:09:52.963Z,64.30
2022-12-19T02:12:25.862Z,59.80
2022-12-19T02:15:02.501Z,56.20
2022-12-19T02:17:58.692Z,63.60
2022-12-19T02:20:47.524Z,43.40
2022-12-19T02:23:37.556Z,37.90
2022-12-19T02:26:22.258Z,58.20
2022-12-19T02:29:26.171Z,56.70
2022-12-19T02:32:09.506Z,49.90
2022-12-19T02:35:06.407Z,38.00
2022-12-19T02:37:43.933Z,49.30
2022-12-19T02:40:20.069Z,43.10
2022-12-19T02:42:59.058Z,37.00
2022-12-19T02:45:32.337Z,50.70
2022-12-19T02:48:05.743Z,44.80
2022-12-19T02:50:42.684Z,51.80
2022-12-19T02:53:13.249Z,53.10
2022-12-19T02:56:02.236Z,67.90
2022-12-19T02:59:12.920Z,59.70
2022-12-19T03:01:57.803Z,52.40
2022-12-19T03:05:06.319Z,38.70
2022-12-19T03:08:07.488Z,32.20
2022-12-19T03:10:39.250Z,39.20
2022-12-19T03:13:13.092Z,30.60
2022-12-19T03:15:41.157Z,40.50
2022-12-19T03:18:08.880Z,29.10
2022-12-19T03:20:52.389Z,31.00
2022-12-19T03:23:19.536Z,17.60
2022-12-19T03:25:52.592Z,43.10
2022-12-19T03:28:39.407Z,40.70
2022-12-19T03:31:07.836Z,27.80
2022-12-19T03:33:35.526Z,50.80
2022-12-19T03:36:09.774Z,49.40
2022-12-19T03:38:38.474Z,48.30
2022-12-19T03:41:07.777Z,42.10
2022-12-19T03:43:35.037Z,29.60
2022-12-19T03:46:11.828Z,34.30
2022-12-19T03:48:45.554Z,43.30
2022-12-19T03:51:57.783Z,51.30
2022-12-19T03:54:32.078Z,41.50
2022-12-19T03:57:13.192Z,36.50
2022-12-19T04:00:06.346Z,47.20
2022-12-19T04:02:44.451Z,48.00
2022-12-19T04:05:17.856Z,49.30
2022-12-19T04:07:45.636Z,50.10
2022-12-19T04:10:18.102Z,45.00
2022-12-19T04:13:03.108Z,38.40
2022-12-19T04:15:41.511Z,32.10
2022-12-19T04:18:11.526Z,39.80
2022-12-19T04:20:43.609Z,80.60
2022-12-19T04:23:23.978Z,102.00
2022-12-19T04:25:59.233Z,44.30
2022-12-19T04:28:35.207Z,72.10
2022-12-19T04:31:03.961Z,52.40
2022-12-19T04:33:30.763Z,28.40
2022-12-19T04:35:57.535Z,29.30
2022-12-19T04:38:24.266Z,49.90
2022-12-19T04:40:50.948Z,49.80
2022-12-19T04:43:17.652Z,53.40
2022-12-19T04:45:44.461Z,64.70
2022-12-19T04:48:11.494Z,33.40
2022-12-19T04:50:38.249Z,50.10
2022-12-19T04:53:06.276Z,51.60
2022-12-19T04:55:33.119Z,58.90
2022-12-19T04:58:04.257Z,34.30
2022-12-19T05:00:30.968Z,69.10
2022-12-19T05:02:57.831Z,61.90
2022-12-19T05:05:24.723Z,36.80
2022-12-19T05:07:51.887Z,65.70
2022-12-19T05:10:18.625Z,56.00
2022-12-19T05:12:45.359Z,43.90
2022-12-19T05:15:12.089Z,31.10
2022-12-19T05:17:38.785Z,25.50
2022-12-19T05:20:07.076Z,45.40
2022-12-19T05:22:33.760Z,29.80
2022-12-19T05:25:00.446Z,28.40
2022-12-19T05:27:27.145Z,53.70
2022-12-19T05:29:53.858Z,29.60
2022-12-19T05:32:20.857Z,18.50
2022-12-19T05:34:47.551Z,29.90
2022-12-19T05:37:14.254Z,28.00
2022-12-19T05:39:40.963Z,35.10
2022-12-19T05:42:12.133Z,30.10
2022-12-19T05:44:39.588Z,29.10
2022-12-19T05:47:06.901Z,29.70
2022-12-19T05:49:33.621Z,10.20
2022-12-19T05:52:00.320Z,26.00
2022-12-19T05:54:27.050Z,29.10
2022-12-19T05:56:53.734Z,32.50
2022-12-19T05:59:20.418Z,32.90
2022-12-19T06:01:47.238Z,28.20
2022-12-19T06:04:14.470Z,30.10
2022-12-19T06:06:41.525Z,33.30
2022-12-19T06:09:08.393Z,29.70
2022-12-19T06:11:35.141Z,29.90
2022-12-19T06:14:01.823Z,25.80
2022-12-19T06:16:28.612Z,28.60
2022-12-19T06:18:55.329Z,28.50
2022-12-19T06:21:23.697Z,51.90
2022-12-19T06:23:51.117Z,58.70
2022-12-19T06:26:21.012Z,103.10
2022-12-19T06:28:49.701Z,77.00
2022-12-19T06:31:17.462Z,87.50
2022-12-19T06:33:44.304Z,70.60
2022-12-19T06:36:17.082Z,84.90
2022-12-19T06:38:43.836Z,82.50
2022-12-19T06:41:29.809Z,125.80
2022-12-19T06:44:01.669Z,78.60
2022-12-19T06:46:29.401Z,82.70
2022-12-19T06:48:56.541Z,91.30
2022-12-19T06:51:23.496Z,101.90
2022-12-19T06:53:50.905Z,115.30
2022-12-19T06:56:18.315Z,138.40
2022-12-19T06:58:45.104Z,71.20
2022-12-19T07:01:33.873Z,31.00
2022-12-19T07:04:00.719Z,174.10
2022-12-19T07:06:28.419Z,117.10
2022-12-19T07:08:55.101Z,40.30
2022-12-19T07:11:21.785Z,141.00
2022-12-19T07:13:48.490Z,164.50
2022-12-19T07:16:15.365Z,124.80
2022-12-19T07:18:42.341Z,135.70
2022-12-19T07:21:13.873Z,135.80
2022-12-19T07:23:41.280Z,133.30
2022-12-19T07:26:08.479Z,130.20
2022-12-19T07:28:36.718Z,139.20
2022-12-19T07:31:04.380Z,139.50
2022-12-19T07:33:31.110Z,272.40
2022-12-19T07:35:57.831Z,272.30
2022-12-19T07:38:24.548Z,215.20
2022-12-19T07:40:51.237Z,253.70
2022-12-19T07:43:17.991Z,332.90
2022-12-19T07:45:44.954Z,158.90
2022-12-19T07:48:11.789Z,148.40
2022-12-19T07:50:38.513Z,136.60
2022-12-19T07:53:05.225Z,141.80
2022-12-19T07:55:31.976Z,91.10
2022-12-19T07:57:59.650Z,133.70
2022-12-19T08:00:26.456Z,111.10
2022-12-19T08:02:53.394Z,136.20
2022-12-19T08:05:20.332Z,125.70
2022-12-19T08:07:47.170Z,163.90
2022-12-19T08:10:15.124Z,149.90
2022-12-19T08:12:42.307Z,120.60
2022-12-19T08:15:09.729Z,122.50
2022-12-19T08:17:38.894Z,111.30
2022-12-19T08:20:08.291Z,97.20
2022-12-19T08:22:35.467Z,110.40
2022-12-19T08:25:02.196Z,151.80
2022-12-19T08:27:30.134Z,173.80
2022-12-19T08:29:56.812Z,163.90
2022-12-19T08:32:23.502Z,151.80
2022-12-19T08:34:50.614Z,126.60
2022-12-19T08:37:17.745Z,173.70
2022-12-19T08:39:44.708Z,171.50
2022-12-19T08:42:11.415Z,157.00
2022-12-19T08:44:38.294Z,143.20
2022-12-19T08:47:05.385Z,115.50
2022-12-19T08:49:32.086Z,120.60
2022-12-19T08:51:58.920Z,141.80
2022-12-19T08:54:27.179Z,135.30
2022-12-19T08:56:54.187Z,107.60
2022-12-19T08:59:30.579Z,127.80
2022-12-19T09:01:59.837Z,139.00
2022-12-19T09:05:59.778Z,86.30
2022-12-19T09:07:15.635Z,116.10
2022-12-19T09:09:44.088Z,107.50
2022-12-19T09:12:14.360Z,96.70
2022-12-19T09:14:41.149Z,107.20
2022-12-19T09:17:08.760Z,106.60
2022-12-19T09:19:35.576Z,80.40
2022-12-19T09:22:02.374Z,99.40
2022-12-19T09:24:29.142Z,97.60
2022-12-19T09:26:55.875Z,95.30
2022-12-19T09:29:22.655Z,90.30
2022-12-19T09:31:53.850Z,89.00
2022-12-19T09:34:33.455Z,77.60
2022-12-19T09:37:17.197Z,86.40
2022-12-19T09:39:46.535Z,91.20
2022-12-19T09:42:41.212Z,87.20
2022-12-19T09:45:50.948Z,94.60
2022-12-19T09:48:24.069Z,72.50
2022-12-19T09:51:09.555Z,99.20
2022-12-19T09:53:59.847Z,81.00
2022-12-19T09:56:31.405Z,98.90
2022-12-19T09:59:27.627Z,79.40
2022-12-19T10:02:24.246Z,76.20
2022-12-19T10:05:05.930Z,94.40
2022-12-19T10:08:07.718Z,82.40
2022-12-19T10:12:38.646Z,77.20
2022-12-19T10:14:26.673Z,69.90
2022-12-19T10:17:32.339Z,82.90
2022-12-19T10:20:23.545Z,76.10
2022-12-19T10:23:01.648Z,70.00
2022-12-19T10:25:43.118Z,71.50
2022-12-19T10:28:15.730Z,69.20
2022-12-19T10:31:09.890Z,62.40
2022-12-19T10:33:49.946Z,71.80
2022-12-19T10:36:16.662Z,58.70
2022-12-19T10:39:04.806Z,60.60
2022-12-19T10:41:32.633Z,53.90
2022-12-19T10:44:07.405Z,55.70
2022-12-19T10:46:47.337Z,46.50
2022-12-19T10:49:24.776Z,56.20
2022-12-19T10:52:07.969Z,52.10
2022-12-19T10:54:38.143Z,49.80
2022-12-19T10:57:30.713Z,46.40
2022-12-19T11:00:00.478Z,50.50
2022-12-19T11:02:39.426Z,51.20
2022-12-19T11:05:30.249Z,53.50
2022-12-19T11:08:06.222Z,44.90
2022-12-19T11:13:08.523Z,49.40
2022-12-19T11:18:08.554Z,51.00
2022-12-19T11:21:28.312Z,51.50
2022-12-19T11:29:34.396Z,55.50
2022-12-19T11:29:40.930Z,44.00
2022-12-19T11:30:45.725Z,58.00
2022-12-19T11:30:46.604Z,53.20
2022-12-19T11:34:23.429Z,58.30
2022-12-19T11:37:08.305Z,58.60
2022-12-19T11:39:58.578Z,52.50
2022-12-19T11:42:35.542Z,57.10
2022-12-19T11:45:11.535Z,61.10
2022-12-19T11:47:53.365Z,66.90
2022-12-19T11:50:28.571Z,56.40
2022-12-19T11:53:21.001Z,69.70
2022-12-19T11:56:05.634Z,52.90
2022-12-19T11:58:50.542Z,56.60
2022-12-19T12:01:42.909Z,68.60
2022-12-19T12:04:52.980Z,70.30
2022-12-19T12:07:58.659Z,69.90
2022-12-19T12:14:29.163Z,60.80
2022-12-19T12:26:02.042Z,64.50
2022-12-19T12:31:06.541Z,68.30
2022-12-19T12:31:19.171Z,71.60
2022-12-19T12:31:31.686Z,65.00
2022-12-19T12:31:38.741Z,75.40
2022-12-19T12:31:40.240Z,72.50
2022-12-19T12:35:19.149Z,62.60
2022-12-19T12:39:25.371Z,67.30
2022-12-19T12:42:33.627Z,69.20
2022-12-19T12:45:03.383Z,63.30
2022-12-19T12:47:30.383Z,69.40
2022-12-19T12:50:01.239Z,64.50
2022-12-19T12:52:36.610Z,65.90
2022-12-19T12:55:06.666Z,68.40
2022-12-19T12:57:37.761Z,59.90
2022-12-19T13:00:28.975Z,67.00
2022-12-19T13:03:18.739Z,70.60
2022-12-19T13:06:07.562Z,65.10
2022-12-19T13:08:46.087Z,58.00
2022-12-19T13:11:55.814Z,71.80
2022-12-19T13:14:52.216Z,62.40
2022-12-19T13:17:47.717Z,73.50
2022-12-19T13:20:19.010Z,70.20
2022-12-19T13:23:05.690Z,71.50
2022-12-19T13:25:38.199Z,64.10
2022-12-19T13:28:05.288Z,69.10
2022-12-19T13:30:52.221Z,69.70
2022-12-19T13:33:20.421Z,69.50
2022-12-19T13:39:11.431Z,45.70
2022-12-19T13:39:57.817Z,61.30
2022-12-19T13:42:01.373Z,69.50
2022-12-19T13:44:28.607Z,45.70
2022-12-19T13:46:56.169Z,68.90
2022-12-19T13:49:35.073Z,70.40
2022-12-19T13:52:04.540Z,81.40
2022-12-19T13:54:38.218Z,75.10
2022-12-19T13:57:28.332Z,78.60
2022-12-19T14:00:01.315Z,64.00
2022-12-19T14:02:44.883Z,77.20
2022-12-19T14:06:14.308Z,85.30
2022-12-19T14:08:23.367Z,70.00
2022-12-19T14:11:41.041Z,67.10
2022-12-19T14:14:17.836Z,81.60
2022-12-19T14:16:48.722Z,52.30
2022-12-19T14:19:41.288Z,63.30
2022-12-19T14:22:25.247Z,63.10
2022-12-19T14:24:53.726Z,59.50
2022-12-19T14:28:24.404Z,39.10
2022-12-19T14:30:28.525Z,33.80
2022-12-19T14:33:43.423Z,69.50
2022-12-19T14:36:09.881Z,37.20
2022-12-19T14:39:27.649Z,47.40
2022-12-19T14:41:46.460Z,68.90
2022-12-19T14:52:50.878Z,19.30
2022-12-19T14:53:17.493Z,79.00
2022-12-19T14:54:22.685Z,84.20
2022-12-19T14:54:48.167Z,72.50
2022-12-19T14:56:08.775Z,95.50
2022-12-19T14:58:57.271Z,68.30
2022-12-19T15:01:28.567Z,99.60
2022-12-19T15:04:51.084Z,84.60
2022-12-19T15:07:08.789Z,112.40
2022-12-19T15:11:08.246Z,101.00
2022-12-19T15:14:53.424Z,88.70
2022-12-19T15:16:04.926Z,79.20
2022-12-19T15:18:42.731Z,74.80
2022-12-19T15:21:14.710Z,58.20
2022-12-19T15:23:44.498Z,56.00
2022-12-19T15:26:18.913Z,138.20
2022-12-19T15:28:53.872Z,67.40
2022-12-19T15:31:34.965Z,34.30
2022-12-19T15:34:38.081Z,103.60
2022-12-19T15:37:10.268Z,40.90
2022-12-19T15:39:37.671Z,62.40
2022-12-19T15:42:06.827Z,83.30
2022-12-19T15:44:37.158Z,134.70
2022-12-19T15:47:12.659Z,69.10
2022-12-19T15:49:39.430Z,27.20
2022-12-19T15:52:19.557Z,89.90
2022-12-19T15:54:49.209Z,115.00
2022-12-19T15:57:42.020Z,103.70
2022-12-19T16:00:16.278Z,59.40
2022-12-19T16:03:21.086Z,109.70
2022-12-19T16:05:29.888Z,99.50
2022-12-19T16:07:58.816Z,141.30
2022-12-19T16:10:26.428Z,38.50
2022-12-19T16:12:56.284Z,78.70
2022-12-19T16:15:33.307Z,121.50
2022-12-19T16:18:03.206Z,70.70
2022-12-19T16:20:36.056Z,114.60
2022-12-19T16:23:02.816Z,115.70
2022-12-19T16:25:38.560Z,73.50
2022-12-19T16:28:07.913Z,110.50
2022-12-19T16:30:35.841Z,105.10
2022-12-19T16:33:02.550Z,115.30
2022-12-19T16:38:18.210Z,100.00
2022-12-19T16:40:52.294Z,57.70
2022-12-19T16:43:37.499Z,112.00
2022-12-19T16:46:06.346Z,105.70
2022-12-19T16:48:35.992Z,64.60
2022-12-19T16:51:03.305Z,95.00
2022-12-19T16:53:30.221Z,130.10
2022-12-19T16:55:58.322Z,80.40
2022-12-19T16:58:27.637Z,144.70
2022-12-19T17:00:55.515Z,116.00
2022-12-19T17:03:33.625Z,132.70
2022-12-19T17:06:01.111Z,129.20
2022-12-19T17:08:27.819Z,155.80
2022-12-19T17:10:55.099Z,161.40
2022-12-19T17:13:22.414Z,185.00
2022-12-19T17:15:56.356Z,335.20
2022-12-19T17:18:35.671Z,124.30
2022-12-19T17:21:02.780Z,141.80
2022-12-19T17:23:32.422Z,115.80
2022-12-19T17:26:01.367Z,232.50
2022-12-19T17:28:29.253Z,178.70
2022-12-19T17:31:00.154Z,332.60
2022-12-19T17:33:37.662Z,290.80
2022-12-19T17:36:06.925Z,348.60
2022-12-19T17:38:34.651Z,312.10
2022-12-19T17:41:01.440Z,328.00
2022-12-19T17:43:28.555Z,266.00
2022-12-19T17:45:55.582Z,321.50
2022-12-19T17:48:29.570Z,301.20
2022-12-19T17:50:57.290Z,240.80
2022-12-19T17:53:24.679Z,286.50
2022-12-19T17:55:51.530Z,249.80
2022-12-19T17:58:18.241Z,171.80
2022-12-19T18:00:47.377Z,453.20
2022-12-19T18:03:24.276Z,368.80
2022-12-19T18:05:55.026Z,223.50
2022-12-19T18:08:31.328Z,345.10
2022-12-19T18:11:01.510Z,269.90
2022-12-19T18:13:30.819Z,268.70
2022-12-19T18:16:00.878Z,204.90
2022-12-19T18:18:34.748Z,163.90
2022-12-19T18:21:02.481Z,248.40
2022-12-19T18:23:33.075Z,205.10
2022-12-19T18:26:02.327Z,179.10
2022-12-19T18:28:29.870Z,169.10
2022-12-19T18:31:22.721Z,184.10
2022-12-19T18:33:50.383Z,191.80
2022-12-19T18:36:27.395Z,278.70
2022-12-19T18:38:55.424Z,181.60
2022-12-19T18:41:22.965Z,205.90
2022-12-19T18:43:49.972Z,162.70
2022-12-19T18:46:27.832Z,143.20
2022-12-19T18:48:55.422Z,154.70
2022-12-19T18:51:23.244Z,100.40
2022-12-19T18:53:51.125Z,98.10
2022-12-19T18:56:18.052Z,51.00
2022-12-19T18:58:44.827Z,94.70
2022-12-19T19:01:24.074Z,87.50
2022-12-19T19:03:56.887Z,102.00
2022-12-19T19:06:35.681Z,167.10
2022-12-19T19:09:04.769Z,133.50
2022-12-19T19:11:51.717Z,119.10
2022-12-19T19:14:18.499Z,136.00
2022-12-19T19:16:45.781Z,250.30
2022-12-19T19:19:17.599Z,203.80
2022-12-19T19:21:44.678Z,105.10
2022-12-19T19:24:16.457Z,166.80
2022-12-19T19:26:43.333Z,86.20
2022-12-19T19:29:10.991Z,192.10
2022-12-19T19:31:41.285Z,156.00
2022-12-19T19:34:24.252Z,152.20
2022-12-19T19:36:54.905Z,175.30
2022-12-19T19:39:23.142Z,185.70
2022-12-19T19:41:50.025Z,202.50
2022-12-19T19:44:16.894Z,135.10
2022-12-19T19:46:43.739Z,111.60
2022-12-19T19:49:10.627Z,132.40
2022-12-19T19:51:37.357Z,77.00
2022-12-19T19:54:04.649Z,121.10
2022-12-19T19:56:32.352Z,108.40
2022-12-19T19:59:01.292Z,208.20
2022-12-19T20:01:28.747Z,243.10
2022-12-19T20:03:55.934Z,289.70
2022-12-19T20:06:23.413Z,318.10
2022-12-19T20:08:50.461Z,384.30
2022-12-19T20:11:18.012Z,293.80
2022-12-19T20:13:44.783Z,247.50
2022-12-19T20:16:18.267Z,305.30
2022-12-19T20:18:53.034Z,294.50
2022-12-19T20:21:20.863Z,477.50
2022-12-19T20:23:47.906Z,460.00
2022-12-19T20:26:17.088Z,319.70
2022-12-19T20:28:49.272Z,333.40
2022-12-19T20:31:23.772Z,411.50
2022-12-19T20:33:53.231Z,421.90
2022-12-19T20:36:20.721Z,428.80
2022-12-19T20:38:48.198Z,442.50
2022-12-19T20:41:16.483Z,415.20
2022-12-19T20:43:43.823Z,415.40
2022-12-19T20:46:15.407Z,386.80
2022-12-19T20:48:42.755Z,383.00
2022-12-19T20:51:10.229Z,372.90
2022-12-19T20:53:39.294Z,181.40
2022-12-19T20:56:07.909Z,220.10
2022-12-19T20:58:37.921Z,223.50
2022-12-19T21:01:08.067Z,212.50
2022-12-19T21:03:36.432Z,187.20
2022-12-19T21:06:05.074Z,125.20
2022-12-19T21:08:32.182Z,103.80
2022-12-19T21:11:01.003Z,108.10
2022-12-19T21:13:28.284Z,105.90
2022-12-19T21:16:07.117Z,91.40
2022-12-19T21:18:36.550Z,69.60
2022-12-19T21:21:04.316Z,68.10
2022-12-19T21:23:31.185Z,65.50
2022-12-19T21:26:01.215Z,67.30
2022-12-19T21:28:29.018Z,67.00
2022-12-19T21:31:02.539Z,60.30
2022-12-19T21:33:29.916Z,58.50
2022-12-19T21:35:56.737Z,63.20
2022-12-19T21:38:24.557Z,57.60
2022-12-19T21:40:51.437Z,53.60
2022-12-19T21:43:18.144Z,48.50
2022-12-19T21:45:44.892Z,54.60
2022-12-19T21:48:11.647Z,54.30
2022-12-19T21:50:38.384Z,42.30
2022-12-19T21:53:05.828Z,43.90
2022-12-19T21:55:32.520Z,40.60
2022-12-19T21:57:59.549Z,42.10
2022-12-19T22:00:26.366Z,42.60
2022-12-19T22:03:12.610Z,41.90
2022-12-19T22:05:39.827Z,36.20
2022-12-19T22:08:06.536Z,38.10
2022-12-19T22:10:33.239Z,40.60
2022-12-19T22:12:59.937Z,38.50
2022-12-19T22:15:26.644Z,38.70
2022-12-19T22:17:53.473Z,35.60
2022-12-19T22:20:20.186Z,35.10
2022-12-19T22:22:47.397Z,32.90
2022-12-19T22:25:14.225Z,35.80
2022-12-19T22:27:40.964Z,39.20
2022-12-19T22:30:11.206Z,34.70
2022-12-19T22:32:38.311Z,31.40
2022-12-19T22:35:06.100Z,38.60
2022-12-19T22:37:32.902Z,35.40
2022-12-19T22:40:00.457Z,37.50
2022-12-19T22:42:28.012Z,33.60
2022-12-19T22:44:54.747Z,34.30
2022-12-19T22:47:21.712Z,38.70
2022-12-19T22:49:52.159Z,32.90
2022-12-19T22:52:19.156Z,35.00
2022-12-19T22:54:45.898Z,33.20
2022-12-19T22:57:12.670Z,35.60
2022-12-19T22:59:40.204Z,34.30
2022-12-19T23:02:07.068Z,32.10
2022-12-19T23:04:35.190Z,35.60
2022-12-19T23:07:02.332Z,37.00
2022-12-19T23:09:29.051Z,31.10
2022-12-19T23:11:55.785Z,32.80
2022-12-19T23:14:22.493Z,32.00
2022-12-19T23:16:49.521Z,39.30
2022-12-19T23:19:17.269Z,34.60
2022-12-19T23:21:44.486Z,35.00
2022-12-19T23:24:12.307Z,33.50
2022-12-19T23:26:39.880Z,31.00
2022-12-19T23:29:14.150Z,35.40
2022-12-19T23:31:44.146Z,32.20
2022-12-19T23:34:11.217Z,39.00
2022-12-19T23:39:25.267Z,32.60
2022-12-19T23:41:51.974Z,30.60
2022-12-19T23:44:18.910Z,33.50
2022-12-19T23:46:45.713Z,33.00
2022-12-19T23:49:12.438Z,32.20
2022-12-19T23:51:39.289Z,28.80
2022-12-19T23:54:06.186Z,26.80
2022-12-19T23:56:33.605Z,32.20
2022-12-19T23:59:01.309Z,30.30
